createdAt,value
2023-04-09T00:02:20.704Z,25.82
2023-04-09T00:04:49.189Z,25.84
2023-04-09T00:07:17.637Z,25.87
2023-04-09T00:09:46.174Z,25.89
2023-04-09T00:12:14.570Z,25.93
2023-04-09T00:14:43.432Z,25.97
2023-04-09T00:17:12.094Z,25.99
2023-04-09T00:19:40.473Z,26.00
2023-04-09T00:22:08.870Z,26.04
2023-04-09T00:24:39.703Z,26.06
2023-04-09T00:27:08.106Z,26.09
2023-04-09T00:29:36.434Z,26.13
2023-04-09T00:32:04.912Z,26.18
2023-04-09T00:34:33.305Z,26.20
2023-04-09T00:37:02.100Z,26.24
2023-04-09T00:39:30.571Z,26.26
2023-04-09T00:42:00.066Z,26.29
2023-04-09T00:44:28.420Z,26.32
2023-04-09T00:46:57.289Z,26.34
2023-04-09T00:49:27.347Z,26.39
2023-04-09T00:51:55.952Z,26.43
2023-04-09T00:54:24.630Z,26.47
2023-04-09T00:56:53.541Z,26.52
2023-04-09T00:59:22.586Z,26.55
2023-04-09T01:01:50.973Z,26.58
2023-04-09T01:04:20.207Z,26.61
2023-04-09T01:06:57.276Z,26.66
2023-04-09T01:09:44.926Z,26.70
2023-04-09T01:12:26.995Z,26.76
2023-04-09T01:15:19.500Z,26.83
2023-04-09T01:18:01.356Z,26.88
2023-04-09T01:20:49.612Z,26.92
2023-04-09T01:23:43.946Z,26.96
2023-04-09T01:26:18.290Z,27.02
2023-04-09T01:28:55.551Z,27.08
2023-04-09T01:31:30.984Z,27.14
2023-04-09T01:34:01.810Z,27.20
2023-04-09T01:36:33.269Z,27.24
2023-04-09T01:39:05.339Z,27.28
2023-04-09T01:41:36.635Z,27.37
2023-04-09T01:44:06.980Z,27.42
2023-04-09T01:46:37.090Z,27.47
2023-04-09T01:49:07.163Z,27.53
2023-04-09T01:51:35.957Z,27.64
2023-04-09T01:54:05.338Z,27.73
2023-04-09T01:56:47.524Z,27.80
2023-04-09T01:59:16.702Z,27.85
2023-04-09T02:01:48.954Z,27.90
2023-04-09T02:04:34.720Z,27.96
2023-04-09T02:07:16.670Z,28.03
2023-04-09T02:09:49.065Z,28.07
2023-04-09T02:12:20.489Z,28.09
2023-04-09T02:14:52.943Z,28.10
2023-04-09T02:17:21.914Z,28.15
2023-04-09T02:19:50.370Z,28.22
2023-04-09T02:22:19.081Z,28.28
2023-04-09T02:24:48.494Z,28.33
2023-04-09T02:27:17.325Z,28.40
2023-04-09T02:29:45.697Z,28.47
2023-04-09T02:32:14.088Z,28.53
2023-04-09T02:34:42.409Z,28.58
2023-04-09T02:37:10.851Z,28.62
2023-04-09T02:39:39.207Z,28.69
2023-04-09T02:42:08.802Z,28.72
2023-04-09T02:44:37.180Z,28.73
2023-04-09T02:47:05.649Z,28.79
2023-04-09T02:49:34.065Z,28.82
2023-04-09T02:52:02.481Z,28.88
2023-04-09T02:54:30.888Z,28.90
2023-04-09T02:56:59.219Z,28.96
2023-04-09T02:59:27.576Z,29.00
2023-04-09T03:01:56.060Z,29.06
2023-04-09T03:04:24.556Z,29.11
2023-04-09T03:06:52.939Z,29.15
2023-04-09T03:09:21.720Z,29.22
2023-04-09T03:11:50.088Z,29.23
2023-04-09T03:14:18.466Z,29.24
2023-04-09T03:16:46.831Z,29.25
2023-04-09T03:19:15.379Z,29.28
2023-04-09T03:21:44.079Z,29.31
2023-04-09T03:24:12.412Z,29.36
2023-04-09T03:26:40.757Z,29.39
2023-04-09T03:29:09.272Z,29.40
2023-04-09T03:31:37.676Z,29.40
2023-04-09T03:34:06.296Z,29.41
2023-04-09T03:36:34.786Z,29.45
2023-04-09T03:39:03.249Z,29.49
2023-04-09T03:41:31.594Z,29.57
2023-04-09T03:43:59.967Z,29.64
2023-04-09T03:46:28.373Z,29.71
2023-04-09T03:48:56.770Z,29.78
2023-04-09T03:51:25.131Z,29.83
2023-04-09T03:53:53.501Z,29.91
2023-04-09T03:56:22.186Z,29.96
2023-04-09T03:58:50.934Z,30.01
2023-04-09T04:01:19.505Z,30.07
2023-04-09T04:03:48.174Z,30.16
2023-04-09T04:06:16.673Z,30.23
2023-04-09T04:08:45.668Z,30.29
2023-04-09T04:11:14.099Z,30.39
2023-04-09T04:13:42.514Z,30.49
2023-04-09T04:16:11.519Z,30.58
2023-04-09T04:18:39.883Z,30.64
2023-04-09T04:21:14.604Z,30.69
2023-04-09T04:23:43.208Z,30.73
2023-04-09T04:26:12.432Z,30.82
2023-04-09T04:28:42.400Z,30.82
2023-04-09T04:31:12.567Z,30.86
2023-04-09T04:33:42.690Z,30.94
2023-04-09T04:36:15.450Z,30.96
2023-04-09T04:38:43.891Z,31.00
2023-04-09T04:41:12.979Z,31.08
2023-04-09T04:43:42.411Z,31.16
2023-04-09T04:46:10.756Z,31.22
2023-04-09T04:48:39.167Z,31.29
2023-04-09T04:51:07.579Z,31.39
2023-04-09T04:53:35.913Z,31.48
2023-04-09T04:56:04.340Z,31.55
2023-04-09T04:58:32.708Z,31.62
2023-04-09T05:01:01.530Z,31.70
2023-04-09T05:03:29.970Z,31.78
2023-04-09T05:05:58.402Z,31.87
2023-04-09T05:08:26.798Z,31.94
2023-04-09T05:10:57.066Z,32.03
2023-04-09T05:13:25.889Z,32.11
2023-04-09T05:15:54.326Z,32.15
2023-04-09T05:18:22.765Z,32.21
2023-04-09T05:20:51.113Z,32.27
2023-04-09T05:23:19.473Z,32.35
2023-04-09T05:25:50.742Z,32.41
2023-04-09T05:28:19.277Z,32.48
2023-04-09T05:30:48.770Z,32.55
2023-04-09T05:33:17.343Z,32.61
2023-04-09T05:35:45.915Z,32.69
2023-04-09T05:38:17.440Z,32.75
2023-04-09T05:40:46.766Z,32.77
2023-04-09T05:43:15.208Z,32.83
2023-04-09T05:45:43.756Z,32.86
2023-04-09T05:48:12.187Z,32.88
2023-04-09T05:50:53.467Z,32.89
2023-04-09T05:53:23.455Z,32.95
2023-04-09T05:55:52.166Z,33.01
2023-04-09T05:58:20.778Z,33.10
2023-04-09T06:00:49.286Z,33.19
2023-04-09T06:03:17.866Z,33.30
2023-04-09T06:05:47.643Z,33.36
2023-04-09T06:08:16.080Z,33.38
2023-04-09T06:10:44.532Z,33.40
2023-04-09T06:13:12.906Z,33.42
2023-04-09T06:15:41.619Z,33.44
2023-04-09T06:18:10.010Z,33.44
2023-04-09T06:20:38.399Z,33.47
2023-04-09T06:23:07.189Z,33.48
2023-04-09T06:25:36.589Z,33.51
2023-04-09T06:28:05.338Z,33.56
2023-04-09T06:30:33.825Z,33.60
2023-04-09T06:33:02.223Z,33.67
2023-04-09T06:35:30.898Z,33.73
2023-04-09T06:37:59.246Z,33.79
2023-04-09T06:40:27.716Z,33.83
2023-04-09T06:42:57.013Z,33.85
2023-04-09T06:45:25.790Z,33.84
2023-04-09T06:47:54.287Z,33.84
2023-04-09T06:50:22.828Z,33.85
2023-04-09T06:52:52.257Z,33.86
2023-04-09T06:55:20.833Z,33.86
2023-04-09T06:57:49.264Z,33.88
2023-04-09T07:00:17.778Z,33.89
2023-04-09T07:02:46.382Z,33.92
2023-04-09T07:05:14.945Z,33.96
2023-04-09T07:07:45.720Z,33.98
2023-04-09T07:10:14.149Z,34.01
2023-04-09T07:12:42.517Z,34.04
2023-04-09T07:15:11.251Z,34.08
2023-04-09T07:17:39.767Z,34.14
2023-04-09T07:20:08.566Z,34.19
2023-04-09T07:22:37.681Z,34.24
2023-04-09T07:25:06.500Z,34.24
2023-04-09T07:27:34.915Z,34.25
2023-04-09T07:30:04.205Z,34.27
2023-04-09T07:32:32.647Z,34.28
2023-04-09T07:35:01.678Z,34.27
2023-04-09T07:37:30.083Z,34.27
2023-04-09T07:39:58.801Z,34.24
2023-04-09T07:42:28.118Z,34.21
2023-04-09T07:44:57.534Z,34.21
2023-04-09T07:47:25.934Z,34.21
2023-04-09T07:49:54.346Z,34.21
2023-04-09T07:52:22.726Z,34.19
2023-04-09T07:54:51.324Z,34.19
2023-04-09T07:57:19.756Z,34.17
2023-04-09T07:59:48.139Z,34.17
2023-04-09T08:02:16.998Z,34.18
2023-04-09T08:04:45.621Z,34.17
2023-04-09T08:07:14.100Z,34.16
2023-04-09T08:09:42.448Z,34.16
2023-04-09T08:12:10.849Z,34.17
2023-04-09T08:14:39.263Z,34.14
2023-04-09T08:17:07.648Z,34.11
2023-04-09T08:19:37.316Z,34.07
2023-04-09T08:22:07.195Z,34.05
2023-04-09T08:24:36.384Z,34.03
2023-04-09T08:27:05.578Z,34.01
2023-04-09T08:29:35.409Z,33.97
2023-04-09T08:32:03.990Z,33.95
2023-04-09T08:34:32.510Z,33.92
2023-04-09T08:37:01.403Z,33.89
2023-04-09T08:39:29.968Z,33.89
2023-04-09T08:42:03.475Z,33.84
2023-04-09T08:44:32.184Z,33.84
2023-04-09T08:47:02.060Z,33.82
2023-04-09T08:49:30.472Z,33.80
2023-04-09T08:51:58.983Z,33.76
2023-04-09T08:54:27.794Z,33.75
2023-04-09T08:56:57.297Z,33.72
2023-04-09T08:59:25.979Z,33.69
2023-04-09T09:02:14.538Z,33.68
2023-04-09T09:04:50.576Z,33.66
2023-04-09T09:07:19.024Z,33.64
2023-04-09T09:10:03.327Z,33.62
2023-04-09T09:12:42.785Z,33.59
2023-04-09T09:15:30.538Z,33.55
2023-04-09T09:18:01.122Z,33.51
2023-04-09T09:20:30.105Z,33.44
2023-04-09T09:22:58.660Z,33.39
2023-04-09T09:25:27.329Z,33.33
2023-04-09T09:27:56.328Z,33.28
2023-04-09T09:30:28.685Z,33.26
2023-04-09T09:33:07.707Z,33.23
2023-04-09T09:35:52.279Z,33.19
2023-04-09T09:38:21.141Z,33.18
2023-04-09T09:40:50.611Z,33.15
2023-04-09T09:43:19.076Z,33.15
2023-04-09T09:45:49.593Z,33.13
2023-04-09T09:48:18.054Z,33.11
2023-04-09T09:50:48.649Z,33.09
2023-04-09T09:53:24.032Z,33.08
2023-04-09T09:55:55.082Z,33.03
2023-04-09T09:58:35.686Z,32.99
2023-04-09T10:01:09.025Z,32.94
2023-04-09T10:03:40.622Z,32.88
2023-04-09T10:06:10.180Z,32.81
2023-04-09T10:08:43.378Z,32.74
2023-04-09T10:11:13.414Z,32.66
2023-04-09T10:13:54.144Z,32.57
2023-04-09T10:16:24.276Z,32.50
2023-04-09T10:18:56.100Z,32.43
2023-04-09T10:22:00.529Z,32.33
2023-04-09T10:24:28.870Z,32.26
2023-04-09T10:27:17.360Z,32.20
2023-04-09T10:29:50.737Z,32.15
2023-04-09T10:32:29.148Z,32.07
2023-04-09T10:35:00.231Z,32.01
2023-04-09T10:37:29.545Z,31.93
2023-04-09T10:39:58.674Z,31.87
2023-04-09T10:42:42.931Z,31.80
2023-04-09T10:45:15.684Z,31.72
2023-04-09T10:47:47.176Z,31.67
2023-04-09T10:50:26.701Z,31.63
2023-04-09T10:53:01.697Z,31.61
2023-04-09T10:55:38.090Z,31.57
2023-04-09T10:58:10.493Z,31.53
2023-04-09T11:00:45.388Z,31.47
2023-04-09T11:03:24.379Z,31.43
2023-04-09T11:06:12.458Z,31.39
2023-04-09T11:08:42.556Z,31.34
2023-04-09T11:11:12.462Z,31.30
2023-04-09T11:13:44.073Z,31.24
2023-04-09T11:16:24.753Z,31.18
2023-04-09T11:18:57.157Z,31.12
2023-04-09T11:21:32.980Z,31.09
2023-04-09T11:24:01.834Z,31.03
2023-04-09T11:26:50.149Z,30.98
2023-04-09T11:29:18.693Z,30.95
2023-04-09T11:31:47.115Z,30.90
2023-04-09T11:34:15.630Z,30.85
2023-04-09T11:36:43.983Z,30.79
2023-04-09T11:39:12.493Z,30.75
2023-04-09T11:41:41.090Z,30.70
2023-04-09T11:44:09.739Z,30.68
2023-04-09T11:46:39.753Z,30.66
2023-04-09T11:49:08.743Z,30.61
2023-04-09T11:51:37.910Z,30.59
2023-04-09T11:54:12.433Z,30.56
2023-04-09T11:56:40.916Z,30.52
2023-04-09T11:59:09.412Z,30.46
2023-04-09T12:01:37.937Z,30.43
2023-04-09T12:04:06.906Z,30.39
2023-04-09T12:06:42.741Z,30.38
2023-04-09T12:09:14.623Z,30.35
2023-04-09T12:11:45.775Z,30.33
2023-04-09T12:14:15.788Z,30.29
2023-04-09T12:16:47.579Z,30.27
2023-04-09T12:19:16.611Z,30.22
2023-04-09T12:21:51.272Z,30.18
2023-04-09T12:24:21.205Z,30.16
2023-04-09T12:26:49.949Z,30.12
2023-04-09T12:29:20.694Z,30.09
2023-04-09T12:31:49.246Z,30.06
2023-04-09T12:34:18.486Z,30.03
2023-04-09T12:36:46.859Z,29.99
2023-04-09T12:39:15.209Z,29.96
2023-04-09T12:41:43.604Z,29.93
2023-04-09T12:44:12.004Z,29.91
2023-04-09T12:46:40.399Z,29.88
2023-04-09T12:49:08.952Z,29.85
2023-04-09T12:51:38.033Z,29.82
2023-04-09T12:54:06.619Z,29.79
2023-04-09T12:56:34.981Z,29.78
2023-04-09T12:59:03.525Z,29.73
2023-04-09T13:01:32.462Z,29.72
2023-04-09T13:04:01.014Z,29.69
2023-04-09T13:06:29.376Z,29.65
2023-04-09T13:08:57.696Z,29.61
2023-04-09T13:11:26.101Z,29.58
2023-04-09T13:13:54.797Z,29.57
2023-04-09T13:16:23.297Z,29.53
2023-04-09T13:18:52.862Z,29.52
2023-04-09T13:21:21.806Z,29.48
2023-04-09T13:23:50.179Z,29.45
2023-04-09T13:26:18.575Z,29.41
2023-04-09T13:28:47.283Z,29.39
2023-04-09T13:31:15.761Z,29.37
2023-04-09T13:33:44.603Z,29.35
2023-04-09T13:36:13.185Z,29.31
2023-04-09T13:38:41.555Z,29.31
2023-04-09T13:41:09.993Z,29.28
2023-04-09T13:43:38.335Z,29.26
2023-04-09T13:46:07.813Z,29.22
2023-04-09T13:48:38.572Z,29.19
2023-04-09T13:51:07.876Z,29.17
2023-04-09T13:53:36.394Z,29.15
2023-04-09T13:56:04.816Z,29.13
2023-04-09T13:58:33.168Z,29.09
2023-04-09T14:01:03.231Z,29.06
2023-04-09T14:03:36.332Z,29.04
2023-04-09T14:06:05.366Z,29.06
2023-04-09T14:08:33.756Z,29.07
2023-04-09T14:11:02.472Z,29.07
2023-04-09T14:13:31.707Z,29.08
2023-04-09T14:16:00.624Z,29.10
2023-04-09T14:18:29.198Z,29.09
2023-04-09T14:20:58.261Z,29.09
2023-04-09T14:23:30.137Z,29.07
2023-04-09T14:25:58.734Z,29.06
2023-04-09T14:28:27.330Z,29.04
2023-04-09T14:30:55.718Z,29.04
2023-04-09T14:33:24.095Z,29.02
2023-04-09T14:35:53.303Z,29.01
2023-04-09T14:38:21.741Z,29.01
2023-04-09T14:40:50.191Z,29.01
2023-04-09T14:43:18.542Z,29.01
2023-04-09T14:45:47.210Z,29.02
2023-04-09T14:48:15.988Z,29.01
2023-04-09T14:50:44.862Z,29.00
2023-04-09T14:53:13.501Z,28.98
2023-04-09T14:55:41.933Z,28.97
2023-04-09T14:58:10.298Z,28.95
2023-04-09T15:00:39.978Z,28.91
2023-04-09T15:03:08.733Z,28.91
2023-04-09T15:05:37.511Z,28.90
2023-04-09T15:08:06.077Z,28.87
2023-04-09T15:10:34.449Z,28.85
2023-04-09T15:13:02.869Z,28.83
2023-04-09T15:15:31.561Z,28.81
2023-04-09T15:18:06.435Z,28.79
2023-04-09T15:20:39.099Z,28.77
2023-04-09T15:23:07.614Z,28.75
2023-04-09T15:25:36.290Z,28.74
2023-04-09T15:28:05.305Z,28.74
2023-04-09T15:30:33.976Z,28.73
2023-04-09T15:33:02.411Z,28.73
2023-04-09T15:35:30.972Z,28.72
2023-04-09T15:37:59.695Z,28.71
2023-04-09T15:40:29.965Z,28.70
2023-04-09T15:42:58.313Z,28.69
2023-04-09T15:45:27.770Z,28.67
2023-04-09T15:47:56.566Z,28.63
2023-04-09T15:50:25.094Z,28.61
2023-04-09T15:52:53.501Z,28.59
2023-04-09T15:55:23.427Z,28.58
2023-04-09T15:57:51.788Z,28.56
2023-04-09T16:00:20.388Z,28.54
2023-04-09T16:02:48.714Z,28.52
2023-04-09T16:05:17.261Z,28.50
2023-04-09T16:07:45.633Z,28.47
2023-04-09T16:10:15.611Z,28.46
2023-04-09T16:12:44.267Z,28.42
2023-04-09T16:15:12.931Z,28.40
2023-04-09T16:17:41.544Z,28.38
2023-04-09T16:20:10.385Z,28.36
2023-04-09T16:22:38.780Z,28.34
2023-04-09T16:25:07.754Z,28.31
2023-04-09T16:27:36.210Z,28.30
2023-04-09T16:30:05.134Z,28.29
2023-04-09T16:32:33.531Z,28.27
2023-04-09T16:35:02.085Z,28.25
2023-04-09T16:37:32.110Z,28.25
2023-04-09T16:40:00.545Z,28.23
2023-04-09T16:42:29.036Z,28.22
2023-04-09T16:44:57.443Z,28.21
2023-04-09T16:47:25.954Z,28.19
2023-04-09T16:49:54.362Z,28.16
2023-04-09T16:52:22.739Z,28.14
2023-04-09T16:54:51.660Z,28.12
2023-04-09T16:57:20.001Z,28.12
2023-04-09T16:59:48.431Z,28.10
2023-04-09T17:02:16.893Z,28.09
2023-04-09T17:04:45.291Z,28.08
2023-04-09T17:07:13.732Z,28.07
2023-04-09T17:09:42.749Z,28.06
2023-04-09T17:12:11.192Z,28.06
2023-04-09T17:14:39.874Z,28.06
2023-04-09T17:17:08.494Z,28.06
2023-04-09T17:19:37.819Z,28.05
2023-04-09T17:22:06.782Z,28.04
2023-04-09T17:24:37.722Z,28.04
2023-04-09T17:27:06.581Z,28.04
2023-04-09T17:29:35.349Z,28.04
2023-04-09T17:32:03.670Z,28.02
2023-04-09T17:34:32.333Z,28.00
2023-04-09T17:37:00.966Z,27.99
2023-04-09T17:39:32.035Z,27.97
2023-04-09T17:42:01.729Z,27.96
2023-04-09T17:44:32.315Z,27.93
2023-04-09T17:47:06.748Z,27.94
2023-04-09T17:49:35.307Z,27.92
2023-04-09T17:52:03.705Z,27.92
2023-04-09T17:54:36.176Z,27.92
2023-04-09T17:57:05.586Z,27.90
2023-04-09T17:59:34.698Z,27.88
2023-04-09T18:02:03.229Z,27.88
2023-04-09T18:04:32.588Z,27.86
2023-04-09T18:07:01.177Z,27.84
2023-04-09T18:09:29.527Z,27.84
2023-04-09T18:11:58.783Z,27.82
2023-04-09T18:14:27.175Z,27.81
2023-04-09T18:16:55.556Z,27.80
2023-04-09T18:19:23.890Z,27.79
2023-04-09T18:21:52.440Z,27.79
2023-04-09T18:24:21.068Z,27.77
2023-04-09T18:26:49.466Z,27.76
2023-04-09T18:29:17.829Z,27.75
2023-04-09T18:31:46.501Z,27.72
2023-04-09T18:34:14.862Z,27.70
2023-04-09T18:36:43.819Z,27.68
2023-04-09T18:39:12.383Z,27.66
2023-04-09T18:41:41.268Z,27.63
2023-04-09T18:44:09.673Z,27.64
2023-04-09T18:46:38.200Z,27.63
2023-04-09T18:49:07.070Z,27.61
2023-04-09T18:51:35.493Z,27.59
2023-04-09T18:54:03.860Z,27.59
2023-04-09T18:56:32.255Z,27.57
2023-04-09T18:59:00.613Z,27.55
2023-04-09T19:01:29.417Z,27.52
2023-04-09T19:03:58.116Z,27.50
2023-04-09T19:06:28.133Z,27.47
2023-04-09T19:08:59.094Z,27.46
2023-04-09T19:11:27.972Z,27.44
2023-04-09T19:13:56.434Z,27.45
2023-04-09T19:16:24.891Z,27.44
2023-04-09T19:18:53.470Z,27.43
2023-04-09T19:21:21.946Z,27.42
2023-04-09T19:23:50.418Z,27.41
2023-04-09T19:26:19.179Z,27.38
2023-04-09T19:28:47.796Z,27.37
2023-04-09T19:31:17.111Z,27.36
2023-04-09T19:33:45.582Z,27.34
2023-04-09T19:36:14.924Z,27.32
2023-04-09T19:38:43.317Z,27.33
2023-04-09T19:41:11.707Z,27.30
2023-04-09T19:43:40.086Z,27.28
2023-04-09T19:46:09.495Z,27.26
2023-04-09T19:48:38.867Z,27.25
2023-04-09T19:51:07.785Z,27.24
2023-04-09T19:53:37.308Z,27.23
2023-04-09T19:56:05.805Z,27.19
2023-04-09T19:58:34.621Z,27.18
2023-04-09T20:01:03.471Z,27.18
2023-04-09T20:03:34.219Z,27.17
2023-04-09T20:06:09.325Z,27.16
2023-04-09T20:08:38.832Z,27.13
2023-04-09T20:11:07.760Z,27.13
2023-04-09T20:13:36.116Z,27.09
2023-04-09T20:16:04.848Z,27.08
2023-04-09T20:18:33.292Z,27.07
2023-04-09T20:21:01.615Z,27.04
2023-04-09T20:23:31.131Z,27.04
2023-04-09T20:25:59.480Z,27.02
2023-04-09T20:28:28.782Z,27.03
2023-04-09T20:30:57.535Z,27.03
2023-04-09T20:33:25.969Z,27.02
2023-04-09T20:35:54.358Z,27.03
2023-04-09T20:38:23.336Z,27.02
2023-04-09T20:40:53.567Z,27.01
2023-04-09T20:43:22.354Z,26.98
2023-04-09T20:45:50.997Z,26.98
2023-04-09T20:48:19.905Z,26.96
2023-04-09T20:50:48.549Z,26.96
2023-04-09T20:53:16.995Z,26.96
2023-04-09T20:55:45.450Z,26.94
2023-04-09T20:58:13.816Z,26.95
2023-04-09T21:00:42.536Z,26.92
2023-04-09T21:03:10.990Z,26.91
2023-04-09T21:05:39.451Z,26.91
2023-04-09T21:08:08.067Z,26.88
2023-04-09T21:10:36.401Z,26.88
2023-04-09T21:13:04.750Z,26.86
2023-04-09T21:15:33.135Z,26.86
2023-04-09T21:18:01.591Z,26.86
2023-04-09T21:20:29.983Z,26.85
2023-04-09T21:22:58.357Z,26.83
2023-04-09T21:25:30.359Z,26.83
2023-04-09T21:27:58.761Z,26.83
2023-04-09T21:30:27.209Z,26.83
2023-04-09T21:32:55.629Z,26.82
2023-04-09T21:35:24.086Z,26.82
2023-04-09T21:37:52.627Z,26.80
2023-04-09T21:40:21.212Z,26.79
2023-04-09T21:42:49.665Z,26.78
2023-04-09T21:45:18.478Z,26.77
2023-04-09T21:47:47.150Z,26.75
2023-04-09T21:50:16.023Z,26.75
2023-04-09T21:52:47.627Z,26.72
2023-04-09T21:55:17.037Z,26.71
2023-04-09T21:57:45.477Z,26.71
2023-04-09T22:00:17.181Z,26.69
2023-04-09T22:02:45.683Z,26.69
2023-04-09T22:05:14.220Z,26.69
2023-04-09T22:07:43.733Z,26.71
2023-04-09T22:10:12.255Z,26.69
2023-04-09T22:12:40.646Z,26.70
2023-04-09T22:15:09.575Z,26.70
2023-04-09T22:17:37.990Z,26.70
2023-04-09T22:20:07.969Z,26.71
2023-04-09T22:22:36.570Z,26.71
2023-04-09T22:25:07.766Z,26.71
2023-04-09T22:27:36.280Z,26.70
2023-04-09T22:30:05.078Z,26.70
2023-04-09T22:32:34.313Z,26.69
2023-04-09T22:35:02.910Z,26.70
2023-04-09T22:37:31.803Z,26.70
2023-04-09T22:40:00.190Z,26.70
2023-04-09T22:42:28.641Z,26.71
2023-04-09T22:44:56.990Z,26.72
2023-04-09T22:47:25.432Z,26.72
2023-04-09T22:49:55.848Z,26.73
2023-04-09T22:52:24.207Z,26.73
2023-04-09T22:54:52.550Z,26.72
2023-04-09T22:57:20.956Z,26.72
2023-04-09T22:59:49.357Z,26.71
2023-04-09T23:02:18.043Z,26.71
2023-04-09T23:04:46.562Z,26.72
2023-04-09T23:07:14.935Z,26.73
2023-04-09T23:09:43.350Z,26.72
2023-04-09T23:12:11.727Z,26.72
2023-04-09T23:14:40.099Z,26.72
2023-04-09T23:17:08.492Z,26.73
2023-04-09T23:19:36.927Z,26.72
2023-04-09T23:22:05.298Z,26.73
2023-04-09T23:24:33.639Z,26.73
2023-04-09T23:27:02.208Z,26.73
2023-04-09T23:29:30.557Z,26.73
2023-04-09T23:31:59.061Z,26.73
2023-04-09T23:34:27.481Z,26.74
2023-04-09T23:36:55.894Z,26.76
2023-04-09T23:39:24.289Z,26.78
2023-04-09T23:41:52.639Z,26.80
2023-04-09T23:44:21.163Z,26.83
2023-04-09T23:46:49.578Z,26.84
2023-04-09T23:49:18.034Z,26.87
2023-04-09T23:51:46.372Z,26.90
2023-04-09T23:54:14.725Z,26.93
2023-04-09T23:56:43.342Z,26.97
2023-04-09T23:59:11.725Z,27.02
